createdAt,value
2022-12-27T00:00:19.297Z,1019.50
2022-12-27T00:01:19.462Z,1019.52
2022-12-27T00:02:19.753Z,1019.58
2022-12-27T00:03:19.878Z,1019.59
2022-12-27T00:04:20.012Z,1019.55
2022-12-27T00:05:20.173Z,1019.58
2022-12-27T00:06:20.351Z,1019.60
2022-12-27T00:07:20.506Z,1019.60
2022-12-27T00:08:20.664Z,1019.65
2022-12-27T00:09:20.873Z,1019.67
2022-12-27T00:10:21.027Z,1019.77
2022-12-27T00:11:21.214Z,1019.73
2022-12-27T00:12:21.376Z,1019.80
2022-12-27T00:13:21.576Z,1019.82
2022-12-27T00:14:21.729Z,1019.85
2022-12-27T00:15:21.926Z,1019.86
2022-12-27T00:16:22.119Z,1019.87
2022-12-27T00:17:22.253Z,1019.87
2022-12-27T00:18:22.404Z,1019.81
2022-12-27T00:19:22.592Z,1019.84
2022-12-27T00:20:22.786Z,1019.85
2022-12-27T00:21:22.958Z,1019.90
2022-12-27T00:22:23.106Z,1019.82
2022-12-27T00:23:23.303Z,1019.89
2022-12-27T00:24:23.454Z,1019.89
2022-12-27T00:25:23.647Z,1019.87
2022-12-27T00:26:23.827Z,1019.88
2022-12-27T00:27:23.982Z,1019.89
2022-12-27T00:28:24.137Z,1019.93
2022-12-27T00:29:24.332Z,1019.94
2022-12-27T00:30:24.478Z,1019.93
2022-12-27T00:31:24.789Z,1019.92
2022-12-27T00:32:24.831Z,1019.91
2022-12-27T00:33:25.021Z,1019.93
2022-12-27T00:34:25.194Z,1019.93
2022-12-27T00:35:25.393Z,1020.03
2022-12-27T00:36:25.580Z,1020.06
2022-12-27T00:37:25.721Z,1020.06
2022-12-27T00:38:25.873Z,1020.00
2022-12-27T00:39:26.064Z,1020.01
2022-12-27T00:40:26.214Z,1019.97
2022-12-27T00:41:26.431Z,1019.98
2022-12-27T00:42:26.591Z,1019.99
2022-12-27T00:43:26.794Z,1019.98
2022-12-27T00:44:26.982Z,1019.97
2022-12-27T00:45:27.186Z,1019.97
2022-12-27T00:46:27.335Z,1019.94
2022-12-27T00:47:27.496Z,1019.98
2022-12-27T00:48:27.644Z,1019.98
2022-12-27T00:49:27.842Z,1020.04
2022-12-27T00:50:27.999Z,1020.00
2022-12-27T00:51:28.204Z,1020.03
2022-12-27T00:52:28.366Z,1020.05
2022-12-27T00:53:28.564Z,1020.13
2022-12-27T00:54:28.717Z,1020.12
2022-12-27T00:55:28.910Z,1020.16
2022-12-27T00:56:29.089Z,1020.17
2022-12-27T00:57:29.244Z,1020.23
2022-12-27T00:58:29.393Z,1020.24
2022-12-27T00:59:29.582Z,1020.21
2022-12-27T01:00:29.754Z,1020.24
2022-12-27T01:01:30.157Z,1020.25
2022-12-27T01:02:30.133Z,1020.21
2022-12-27T01:03:30.337Z,1020.29
2022-12-27T01:04:30.452Z,1020.28
2022-12-27T01:05:30.642Z,1020.29
2022-12-27T01:06:30.812Z,1020.31
2022-12-27T01:07:30.973Z,1020.38
2022-12-27T01:08:31.151Z,1020.32
2022-12-27T01:09:31.350Z,1020.38
2022-12-27T01:10:31.524Z,1020.39
2022-12-27T01:11:31.698Z,1020.37
2022-12-27T01:12:31.853Z,1020.40
2022-12-27T01:13:32.020Z,1020.42
2022-12-27T01:14:32.189Z,1020.44
2022-12-27T01:15:32.377Z,1020.46
2022-12-27T01:16:32.572Z,1020.51
2022-12-27T01:17:32.692Z,1020.51
2022-12-27T01:18:32.847Z,1020.55
2022-12-27T01:19:33.011Z,1020.56
2022-12-27T01:20:33.171Z,1020.56
2022-12-27T01:21:33.399Z,1020.54
2022-12-27T01:22:33.565Z,1020.56
2022-12-27T01:23:33.732Z,1020.60
2022-12-27T01:24:33.897Z,1020.61
2022-12-27T01:25:34.061Z,1020.65
2022-12-27T01:26:34.242Z,1020.60
2022-12-27T01:27:34.399Z,1020.60
2022-12-27T01:28:34.574Z,1020.60
2022-12-27T01:29:34.735Z,1020.64
2022-12-27T01:30:34.904Z,1020.57
2022-12-27T01:31:35.145Z,1020.61
2022-12-27T01:32:35.265Z,1020.57
2022-12-27T01:33:35.428Z,1020.56
2022-12-27T01:34:35.581Z,1020.57
2022-12-27T01:35:35.778Z,1020.56
2022-12-27T01:36:35.954Z,1020.60
2022-12-27T01:37:36.116Z,1020.62
2022-12-27T01:38:36.300Z,1020.62
2022-12-27T01:39:36.439Z,1020.66
2022-12-27T01:40:36.599Z,1020.66
2022-12-27T01:41:36.817Z,1020.62
2022-12-27T01:42:36.959Z,1020.65
2022-12-27T01:43:37.151Z,1020.68
2022-12-27T01:44:37.313Z,1020.64
2022-12-27T01:45:37.491Z,1020.70
2022-12-27T01:46:37.656Z,1020.68
2022-12-27T01:47:37.817Z,1020.73
2022-12-27T01:48:37.968Z,1020.72
2022-12-27T01:49:38.138Z,1020.74
2022-12-27T01:50:38.325Z,1020.69
2022-12-27T01:51:38.528Z,1020.72
2022-12-27T01:52:38.683Z,1020.77
2022-12-27T01:53:38.848Z,1020.80
2022-12-27T01:54:39.050Z,1020.79
2022-12-27T01:55:39.197Z,1020.77
2022-12-27T01:56:39.367Z,1020.78
2022-12-27T01:57:39.537Z,1020.80
2022-12-27T01:58:39.739Z,1020.77
2022-12-27T01:59:39.918Z,1020.81
2022-12-27T02:00:40.068Z,1020.72
2022-12-27T02:01:40.416Z,1020.70
2022-12-27T02:02:40.505Z,1020.74
2022-12-27T02:03:40.567Z,1020.74
2022-12-27T02:04:40.765Z,1020.78
2022-12-27T02:05:40.919Z,1020.69
2022-12-27T02:06:41.126Z,1020.78
2022-12-27T02:07:41.299Z,1020.76
2022-12-27T02:08:41.484Z,1020.80
2022-12-27T02:09:41.655Z,1020.80
2022-12-27T02:10:41.845Z,1020.77
2022-12-27T02:11:42.019Z,1020.79
2022-12-27T02:12:42.183Z,1020.79
2022-12-27T02:13:42.335Z,1020.78
2022-12-27T02:14:42.514Z,1020.76
2022-12-27T02:15:42.673Z,1020.78
2022-12-27T02:16:42.869Z,1020.84
2022-12-27T02:17:43.011Z,1020.82
2022-12-27T02:18:43.212Z,1020.86
2022-12-27T02:19:43.367Z,1020.90
2022-12-27T02:20:43.544Z,1020.90
2022-12-27T02:21:43.724Z,1020.95
2022-12-27T02:22:43.886Z,1020.96
2022-12-27T02:23:44.036Z,1020.93
2022-12-27T02:24:44.237Z,1020.95
2022-12-27T02:25:44.386Z,1020.96
2022-12-27T02:26:44.613Z,1021.00
2022-12-27T02:27:44.748Z,1020.94
2022-12-27T02:28:44.914Z,1020.99
2022-12-27T02:29:45.160Z,1020.94
2022-12-27T02:30:45.306Z,1021.02
2022-12-27T02:31:45.433Z,1021.03
2022-12-27T02:32:45.603Z,1020.98
2022-12-27T02:33:45.773Z,1021.02
2022-12-27T02:34:45.983Z,1021.05
2022-12-27T02:35:46.141Z,1021.02
2022-12-27T02:36:46.349Z,1021.04
2022-12-27T02:37:46.499Z,1021.08
2022-12-27T02:38:46.678Z,1021.07
2022-12-27T02:39:46.857Z,1021.07
2022-12-27T02:40:47.006Z,1021.17
2022-12-27T02:41:47.202Z,1021.14
2022-12-27T02:42:47.342Z,1021.13
2022-12-27T02:43:47.502Z,1021.11
2022-12-27T02:44:47.672Z,1021.21
2022-12-27T02:45:47.845Z,1021.16
2022-12-27T02:46:48.007Z,1021.13
2022-12-27T02:47:48.152Z,1021.19
2022-12-27T02:48:48.310Z,1021.24
2022-12-27T02:49:48.512Z,1021.21
2022-12-27T02:50:48.677Z,1021.19
2022-12-27T02:51:48.841Z,1021.23
2022-12-27T02:52:49.003Z,1021.21
2022-12-27T02:53:49.183Z,1021.29
2022-12-27T02:54:49.384Z,1021.29
2022-12-27T02:55:49.532Z,1021.30
2022-12-27T02:56:49.760Z,1021.30
2022-12-27T02:57:49.879Z,1021.31
2022-12-27T02:58:50.144Z,1021.28
2022-12-27T02:59:50.249Z,1021.27
2022-12-27T03:00:50.439Z,1021.25
2022-12-27T03:01:50.704Z,1021.26
2022-12-27T03:02:50.803Z,1021.30
2022-12-27T03:03:50.959Z,1021.32
2022-12-27T03:04:51.109Z,1021.31
2022-12-27T03:05:51.300Z,1021.29
2022-12-27T03:06:51.527Z,1021.27
2022-12-27T03:07:51.668Z,1021.31
2022-12-27T03:08:51.867Z,1021.24
2022-12-27T03:09:52.025Z,1021.27
2022-12-27T03:10:52.218Z,1021.32
2022-12-27T03:11:52.437Z,1021.34
2022-12-27T03:12:52.548Z,1021.36
2022-12-27T03:13:52.729Z,1021.33
2022-12-27T03:14:52.927Z,1021.43
2022-12-27T03:15:53.104Z,1021.43
2022-12-27T03:16:53.282Z,1021.45
2022-12-27T03:17:53.437Z,1021.47
2022-12-27T03:18:53.630Z,1021.46
2022-12-27T03:19:53.789Z,1021.44
2022-12-27T03:20:53.982Z,1021.42
2022-12-27T03:21:54.157Z,1021.52
2022-12-27T03:22:54.318Z,1021.55
2022-12-27T03:23:54.496Z,1021.52
2022-12-27T03:24:54.671Z,1021.49
2022-12-27T03:25:54.818Z,1021.52
2022-12-27T03:26:55.007Z,1021.52
2022-12-27T03:27:55.156Z,1021.52
2022-12-27T03:28:55.357Z,1021.54
2022-12-27T03:29:55.540Z,1021.58
2022-12-27T03:30:55.715Z,1021.58
2022-12-27T03:31:55.885Z,1021.59
2022-12-27T03:32:56.051Z,1021.55
2022-12-27T03:33:56.205Z,1021.62
2022-12-27T03:34:56.378Z,1021.64
2022-12-27T03:35:56.526Z,1021.63
2022-12-27T03:36:56.707Z,1021.64
2022-12-27T03:37:56.872Z,1021.65
2022-12-27T03:38:57.056Z,1021.62
2022-12-27T03:39:57.205Z,1021.66
2022-12-27T03:40:57.420Z,1021.67
2022-12-27T03:41:57.635Z,1021.68
2022-12-27T03:42:57.753Z,1021.72
2022-12-27T03:43:57.904Z,1021.74
2022-12-27T03:44:58.112Z,1021.77
2022-12-27T03:45:58.322Z,1021.74
2022-12-27T03:46:58.431Z,1021.72
2022-12-27T03:47:58.586Z,1021.74
2022-12-27T03:48:58.781Z,1021.72
2022-12-27T03:49:58.929Z,1021.72
2022-12-27T03:50:59.116Z,1021.75
2022-12-27T03:51:59.263Z,1021.69
2022-12-27T03:52:59.424Z,1021.76
2022-12-27T03:53:59.598Z,1021.70
2022-12-27T03:54:59.796Z,1021.72
2022-12-27T03:55:59.942Z,1021.71
2022-12-27T03:57:00.143Z,1021.69
2022-12-27T03:58:00.309Z,1021.72
2022-12-27T03:59:00.481Z,1021.71
2022-12-27T04:00:00.658Z,1021.72
2022-12-27T04:01:00.810Z,1021.78
2022-12-27T04:02:01.134Z,1021.83
2022-12-27T04:03:01.251Z,1021.79
2022-12-27T04:04:01.292Z,1021.81
2022-12-27T04:05:01.483Z,1021.82
2022-12-27T04:06:01.643Z,1021.85
2022-12-27T04:07:01.840Z,1021.80
2022-12-27T04:08:02.009Z,1021.86
2022-12-27T04:09:02.193Z,1021.80
2022-12-27T04:10:02.399Z,1021.80
2022-12-27T04:11:02.530Z,1021.81
2022-12-27T04:12:02.764Z,1021.81
2022-12-27T04:13:02.883Z,1021.82
2022-12-27T04:14:03.037Z,1021.87
2022-12-27T04:15:03.214Z,1021.85
2022-12-27T04:16:03.411Z,1021.86
2022-12-27T04:17:03.561Z,1021.89
2022-12-27T04:18:03.721Z,1021.86
2022-12-27T04:19:03.932Z,1021.89
2022-12-27T04:20:04.081Z,1021.84
2022-12-27T04:21:04.285Z,1021.88
2022-12-27T04:22:04.420Z,1021.85
2022-12-27T04:23:04.596Z,1021.90
2022-12-27T04:24:04.770Z,1021.88
2022-12-27T04:25:04.929Z,1021.88
2022-12-27T04:26:05.082Z,1021.85
2022-12-27T04:27:05.253Z,1021.86
2022-12-27T04:28:05.407Z,1021.87
2022-12-27T04:29:05.629Z,1021.78
2022-12-27T04:30:05.800Z,1021.80
2022-12-27T04:31:06.011Z,1021.82
2022-12-27T04:32:06.154Z,1021.85
2022-12-27T04:33:06.310Z,1021.80
2022-12-27T04:34:06.482Z,1021.78
2022-12-27T04:35:06.666Z,1021.76
2022-12-27T04:36:06.840Z,1021.81
2022-12-27T04:37:07.031Z,1021.79
2022-12-27T04:38:07.178Z,1021.78
2022-12-27T04:39:07.369Z,1021.75
2022-12-27T04:40:07.583Z,1021.76
2022-12-27T04:41:07.730Z,1021.75
2022-12-27T04:42:07.935Z,1021.71
2022-12-27T04:43:08.055Z,1021.71
2022-12-27T04:44:08.229Z,1021.82
2022-12-27T04:45:14.903Z,1021.76
2022-12-27T04:46:09.633Z,1021.74
2022-12-27T04:47:08.786Z,1021.74
2022-12-27T04:48:08.937Z,1021.82
2022-12-27T04:49:09.144Z,1021.77
2022-12-27T04:50:09.289Z,1021.71
2022-12-27T04:51:09.480Z,1021.71
2022-12-27T04:52:09.651Z,1021.77
2022-12-27T04:53:09.815Z,1021.72
2022-12-27T04:54:09.975Z,1021.82
2022-12-27T04:55:10.290Z,1021.77
2022-12-27T04:56:10.315Z,1021.71
2022-12-27T04:57:10.536Z,1021.74
2022-12-27T04:58:10.655Z,1021.73
2022-12-27T04:59:10.853Z,1021.74
2022-12-27T05:00:11.016Z,1021.78
2022-12-27T05:01:14.316Z,1021.78
2022-12-27T05:02:11.422Z,1021.77
2022-12-27T05:03:11.590Z,1021.75
2022-12-27T05:04:11.685Z,1021.78
2022-12-27T05:05:11.876Z,1021.75
2022-12-27T05:06:12.035Z,1021.79
2022-12-27T05:07:12.241Z,1021.79
2022-12-27T05:08:12.394Z,1021.82
2022-12-27T05:09:12.593Z,1021.75
2022-12-27T05:10:12.745Z,1021.82
2022-12-27T05:11:12.941Z,1021.82
2022-12-27T05:12:13.113Z,1021.75
2022-12-27T05:13:13.273Z,1021.78
2022-12-27T05:14:13.422Z,1021.83
2022-12-27T05:15:13.623Z,1021.80
2022-12-27T05:16:13.815Z,1021.79
2022-12-27T05:17:13.954Z,1021.82
2022-12-27T05:18:14.134Z,1021.79
2022-12-27T05:19:14.301Z,1021.80
2022-12-27T05:20:14.457Z,1021.79
2022-12-27T05:21:14.649Z,1021.82
2022-12-27T05:22:14.820Z,1021.87
2022-12-27T05:23:14.986Z,1021.87
2022-12-27T05:24:15.131Z,1021.87
2022-12-27T05:25:15.294Z,1021.86
2022-12-27T05:26:15.478Z,1021.90
2022-12-27T05:27:16.167Z,1021.86
2022-12-27T05:28:15.862Z,1021.90
2022-12-27T05:29:16.032Z,1021.97
2022-12-27T05:30:16.180Z,1021.95
2022-12-27T05:31:16.394Z,1021.89
2022-12-27T05:32:16.552Z,1021.96
2022-12-27T05:33:16.711Z,1022.01
2022-12-27T05:34:16.885Z,1022.03
2022-12-27T05:35:17.042Z,1022.03
2022-12-27T05:36:17.221Z,1022.02
2022-12-27T05:37:17.411Z,1022.02
2022-12-27T05:38:17.599Z,1022.09
2022-12-27T05:39:17.810Z,1022.07
2022-12-27T05:40:17.951Z,1022.15
2022-12-27T05:41:18.139Z,1022.12
2022-12-27T05:42:18.313Z,1022.01
2022-12-27T05:43:18.477Z,1022.10
2022-12-27T05:44:18.652Z,1022.06
2022-12-27T05:45:18.815Z,1022.07
2022-12-27T05:46:18.996Z,1022.07
2022-12-27T05:47:19.148Z,1022.15
2022-12-27T05:48:19.329Z,1022.11
2022-12-27T05:49:19.540Z,1022.09
2022-12-27T05:50:19.695Z,1022.11
2022-12-27T05:51:19.897Z,1022.15
2022-12-27T05:52:20.070Z,1022.18
2022-12-27T05:53:20.214Z,1022.17
2022-12-27T05:54:20.379Z,1022.14
2022-12-27T05:55:20.559Z,1022.13
2022-12-27T05:56:20.733Z,1022.14
2022-12-27T05:57:20.936Z,1022.18
2022-12-27T05:58:21.088Z,1022.24
2022-12-27T05:59:21.258Z,1022.23
2022-12-27T06:00:21.414Z,1022.23
2022-12-27T06:01:21.639Z,1022.24
2022-12-27T06:02:22.017Z,1022.23
2022-12-27T06:03:22.116Z,1022.22
2022-12-27T06:04:22.165Z,1022.29
2022-12-27T06:05:22.347Z,1022.26
2022-12-27T06:06:22.511Z,1022.28
2022-12-27T06:07:22.708Z,1022.27
2022-12-27T06:08:22.875Z,1022.31
2022-12-27T06:09:23.042Z,1022.32
2022-12-27T06:10:23.241Z,1022.32
2022-12-27T06:11:23.389Z,1022.33
2022-12-27T06:12:23.587Z,1022.34
2022-12-27T06:13:23.748Z,1022.34
2022-12-27T06:14:23.937Z,1022.33
2022-12-27T06:15:24.091Z,1022.33
2022-12-27T06:16:24.323Z,1022.27
2022-12-27T06:17:24.483Z,1022.22
2022-12-27T06:18:24.644Z,1022.26
2022-12-27T06:19:24.795Z,1022.30
2022-12-27T06:20:24.992Z,1022.32
2022-12-27T06:21:25.152Z,1022.37
2022-12-27T06:22:25.333Z,1022.46
2022-12-27T06:23:25.476Z,1022.47
2022-12-27T06:24:25.655Z,1022.42
2022-12-27T06:25:25.814Z,1022.45
2022-12-27T06:26:26.028Z,1022.50
2022-12-27T06:27:26.163Z,1022.58
2022-12-27T06:28:26.332Z,1022.54
2022-12-27T06:29:26.492Z,1022.58
2022-12-27T06:30:29.291Z,1022.50
2022-12-27T06:31:27.916Z,1022.48
2022-12-27T06:32:27.042Z,1022.40
2022-12-27T06:33:27.198Z,1022.40
2022-12-27T06:34:27.385Z,1022.42
2022-12-27T06:35:27.554Z,1022.41
2022-12-27T06:36:27.734Z,1022.40
2022-12-27T06:37:27.885Z,1022.46
2022-12-27T06:38:28.057Z,1022.47
2022-12-27T06:39:28.194Z,1022.51
2022-12-27T06:40:28.395Z,1022.47
2022-12-27T06:41:28.543Z,1022.46
2022-12-27T06:42:28.753Z,1022.53
2022-12-27T06:43:28.904Z,1022.54
2022-12-27T06:44:29.104Z,1022.48
2022-12-27T06:45:29.303Z,1022.44
2022-12-27T06:46:29.625Z,1022.52
2022-12-27T06:47:29.634Z,1022.58
2022-12-27T06:48:29.793Z,1022.54
2022-12-27T06:49:29.956Z,1022.53
2022-12-27T06:50:30.111Z,1022.53
2022-12-27T06:51:30.281Z,1022.54
2022-12-27T06:52:30.477Z,1022.56
2022-12-27T06:53:30.645Z,1022.57
2022-12-27T06:54:30.822Z,1022.58
2022-12-27T06:55:30.998Z,1022.54
2022-12-27T06:56:31.171Z,1022.58
2022-12-27T06:57:31.364Z,1022.53
2022-12-27T06:58:31.533Z,1022.49
2022-12-27T06:59:31.703Z,1022.54
2022-12-27T07:00:31.881Z,1022.54
2022-12-27T07:01:32.145Z,1022.59
2022-12-27T07:02:32.372Z,1022.60
2022-12-27T07:03:32.402Z,1022.67
2022-12-27T07:04:32.590Z,1022.68
2022-12-27T07:05:32.752Z,1022.71
2022-12-27T07:06:32.937Z,1022.66
2022-12-27T07:07:33.123Z,1022.70
2022-12-27T07:08:33.307Z,1022.72
2022-12-27T07:09:33.480Z,1022.70
2022-12-27T07:10:33.670Z,1022.72
2022-12-27T07:11:33.835Z,1022.74
2022-12-27T07:12:36.828Z,1022.84
2022-12-27T07:13:34.178Z,1022.75
2022-12-27T07:14:34.341Z,1022.75
2022-12-27T07:15:34.541Z,1022.78
2022-12-27T07:16:35.247Z,1022.80
2022-12-27T07:17:34.914Z,1022.83
2022-12-27T07:18:35.070Z,1022.85
2022-12-27T07:19:35.245Z,1022.77
2022-12-27T07:20:35.422Z,1022.81
2022-12-27T07:21:35.607Z,1022.79
2022-12-27T07:22:35.797Z,1022.83
2022-12-27T07:23:35.970Z,1022.86
2022-12-27T07:24:36.160Z,1022.87
2022-12-27T07:25:36.339Z,1022.81
2022-12-27T07:26:36.530Z,1022.90
2022-12-27T07:27:36.760Z,1022.93
2022-12-27T07:28:36.909Z,1022.88
2022-12-27T07:29:41.918Z,1022.87
2022-12-27T07:30:38.255Z,1022.90
2022-12-27T07:31:37.419Z,1022.93
2022-12-27T07:32:37.608Z,1022.97
2022-12-27T07:33:37.770Z,1022.94
2022-12-27T07:34:37.934Z,1022.92
2022-12-27T07:35:43.472Z,1022.93
2022-12-27T07:36:39.297Z,1022.98
2022-12-27T07:37:38.455Z,1023.00
2022-12-27T07:38:38.637Z,1023.03
2022-12-27T07:39:38.815Z,1023.06
2022-12-27T07:40:38.999Z,1023.07
2022-12-27T07:41:39.159Z,1023.12
2022-12-27T07:42:39.357Z,1023.13
2022-12-27T07:43:39.496Z,1023.10
2022-12-27T07:44:39.704Z,1023.18
2022-12-27T07:45:39.891Z,1023.00
2022-12-27T07:46:40.063Z,1023.08
2022-12-27T07:47:40.215Z,1023.15
2022-12-27T07:48:40.424Z,1023.14
2022-12-27T07:49:40.590Z,1023.15
2022-12-27T07:50:40.744Z,1023.12
2022-12-27T07:51:40.930Z,1023.13
2022-12-27T07:52:41.158Z,1023.17
2022-12-27T07:53:41.283Z,1023.14
2022-12-27T07:54:41.476Z,1023.11
2022-12-27T07:55:41.642Z,1023.22
2022-12-27T07:56:41.818Z,1023.13
2022-12-27T07:57:42.005Z,1023.26
2022-12-27T07:58:42.166Z,1023.26
2022-12-27T07:59:42.350Z,1023.18
2022-12-27T08:00:42.541Z,1023.29
2022-12-27T08:01:42.757Z,1023.25
2022-12-27T08:02:42.885Z,1023.18
2022-12-27T08:03:43.142Z,1023.14
2022-12-27T08:04:43.242Z,1023.21
2022-12-27T08:05:43.440Z,1023.20
2022-12-27T08:06:43.596Z,1023.18
2022-12-27T08:07:43.792Z,1023.15
2022-12-27T08:08:43.963Z,1023.20
2022-12-27T08:09:44.145Z,1023.17
2022-12-27T08:10:44.333Z,1023.19
2022-12-27T08:11:44.516Z,1023.19
2022-12-27T08:12:44.725Z,1023.26
2022-12-27T08:13:44.879Z,1023.23
2022-12-27T08:14:45.066Z,1023.25
2022-12-27T08:15:45.256Z,1023.21
2022-12-27T08:16:45.469Z,1023.22
2022-12-27T08:17:45.642Z,1023.23
2022-12-27T08:18:45.811Z,1023.20
2022-12-27T08:19:45.971Z,1023.21
2022-12-27T08:20:46.157Z,1023.23
2022-12-27T08:21:46.324Z,1023.25
2022-12-27T08:22:46.524Z,1023.25
2022-12-27T08:23:46.704Z,1023.25
2022-12-27T08:24:46.870Z,1023.30
2022-12-27T08:25:48.981Z,1023.25
2022-12-27T08:26:47.212Z,1023.30
2022-12-27T08:27:47.402Z,1023.25
2022-12-27T08:28:47.582Z,1023.32
2022-12-27T08:29:47.766Z,1023.28
2022-12-27T08:30:47.982Z,1023.34
2022-12-27T08:31:48.118Z,1023.33
2022-12-27T08:32:48.304Z,1023.33
2022-12-27T08:33:51.230Z,1023.36
2022-12-27T08:34:49.670Z,1023.33
2022-12-27T08:35:53.763Z,1023.30
2022-12-27T08:36:57.390Z,1023.36
2022-12-27T08:37:50.208Z,1023.39
2022-12-27T08:38:49.362Z,1023.35
2022-12-27T08:39:49.539Z,1023.42
2022-12-27T08:40:49.720Z,1023.44
2022-12-27T08:41:49.926Z,1023.49
2022-12-27T08:42:50.091Z,1023.32
2022-12-27T08:43:50.245Z,1023.45
2022-12-27T08:44:50.423Z,1023.47
2022-12-27T08:45:50.616Z,1023.50
2022-12-27T08:46:50.740Z,1023.44
2022-12-27T08:47:50.953Z,1023.52
2022-12-27T08:48:51.100Z,1023.57
2022-12-27T08:49:51.250Z,1023.52
2022-12-27T08:50:51.462Z,1023.53
2022-12-27T08:51:51.618Z,1023.59
2022-12-27T08:52:51.808Z,1023.49
2022-12-27T08:53:51.985Z,1023.52
2022-12-27T08:54:52.132Z,1023.56
2022-12-27T08:55:52.309Z,1023.52
2022-12-27T08:56:52.496Z,1023.52
2022-12-27T08:57:52.671Z,1023.46
2022-12-27T08:58:52.857Z,1023.46
2022-12-27T08:59:53.031Z,1023.49
2022-12-27T09:00:53.209Z,1023.50
2022-12-27T09:01:53.581Z,1023.48
2022-12-27T09:02:53.611Z,1023.52
2022-12-27T09:03:53.763Z,1023.52
2022-12-27T09:04:53.919Z,1023.53
2022-12-27T09:05:54.091Z,1023.56
2022-12-27T09:06:54.283Z,1023.59
2022-12-27T09:07:54.470Z,1023.53
2022-12-27T09:08:54.796Z,1023.60
2022-12-27T09:09:54.827Z,1023.61
2022-12-27T09:10:55.010Z,1023.60
2022-12-27T09:11:56.062Z,1023.56
2022-12-27T09:12:55.371Z,1023.66
2022-12-27T09:13:55.545Z,1023.65
2022-12-27T09:14:55.706Z,1023.63
2022-12-27T09:15:55.886Z,1023.56
2022-12-27T09:16:56.040Z,1023.65
2022-12-27T09:17:56.204Z,1023.63
2022-12-27T09:18:56.394Z,1023.62
2022-12-27T09:19:56.558Z,1023.56
2022-12-27T09:20:56.703Z,1023.48
2022-12-27T09:21:56.856Z,1023.52
2022-12-27T09:22:57.060Z,1023.51
2022-12-27T09:23:57.240Z,1023.54
2022-12-27T09:24:57.446Z,1023.58
2022-12-27T09:25:57.567Z,1023.62
2022-12-27T09:26:57.760Z,1023.55
2022-12-27T09:27:57.979Z,1023.57
2022-12-27T09:28:58.117Z,1023.64
2022-12-27T09:29:58.308Z,1023.67
2022-12-27T09:30:58.527Z,1023.69
2022-12-27T09:31:58.639Z,1023.67
2022-12-27T09:32:58.851Z,1023.65
2022-12-27T09:33:59.021Z,1023.75
2022-12-27T09:34:59.175Z,1023.81
2022-12-27T09:35:59.329Z,1023.85
2022-12-27T09:36:59.526Z,1023.88
2022-12-27T09:37:59.718Z,1023.87
2022-12-27T09:38:59.907Z,1023.93
2022-12-27T09:40:00.059Z,1023.91
2022-12-27T09:41:00.205Z,1023.85
2022-12-27T09:43:16.352Z,1023.78
2022-12-27T09:44:01.718Z,1023.85
2022-12-27T09:45:00.927Z,1023.85
2022-12-27T09:46:01.136Z,1023.92
2022-12-27T09:47:01.255Z,1023.86
2022-12-27T09:48:01.414Z,1023.90
2022-12-27T09:49:01.574Z,1023.91
2022-12-27T09:50:01.739Z,1023.89
2022-12-27T09:51:01.884Z,1023.86
2022-12-27T09:52:02.067Z,1023.86
2022-12-27T09:53:02.265Z,1023.94
2022-12-27T09:54:02.454Z,1023.92
2022-12-27T09:55:05.007Z,1023.94
2022-12-27T09:56:02.787Z,1023.94
2022-12-27T09:57:19.442Z,1023.92
2022-12-27T09:58:04.093Z,1023.90
2022-12-27T09:59:03.387Z,1023.89
2022-12-27T10:00:03.452Z,1023.88
2022-12-27T10:01:03.647Z,1023.94
2022-12-27T10:02:03.886Z,1023.94
2022-12-27T10:03:04.005Z,1023.96
2022-12-27T10:04:04.207Z,1023.95
2022-12-27T10:05:21.580Z,1024.01
2022-12-27T10:06:05.584Z,1023.94
2022-12-27T10:07:04.697Z,1023.90
2022-12-27T10:08:04.876Z,1023.90
2022-12-27T10:09:05.116Z,1023.89
2022-12-27T10:10:05.246Z,1023.94
2022-12-27T10:11:05.434Z,1023.91
2022-12-27T10:12:05.628Z,1023.95
2022-12-27T10:13:05.797Z,1023.89
2022-12-27T10:14:06.025Z,1023.87
2022-12-27T10:15:06.146Z,1023.93
2022-12-27T10:16:06.352Z,1023.82
2022-12-27T10:17:06.516Z,1023.89
2022-12-27T10:18:06.692Z,1023.93
2022-12-27T10:19:06.933Z,1023.91
2022-12-27T10:20:07.105Z,1023.86
2022-12-27T10:21:07.248Z,1023.91
2022-12-27T10:22:07.437Z,1023.77
2022-12-27T10:23:07.556Z,1023.83
2022-12-27T10:24:07.771Z,1023.86
2022-12-27T10:25:07.897Z,1023.87
2022-12-27T10:26:08.082Z,1023.88
2022-12-27T10:27:08.248Z,1023.82
2022-12-27T10:28:08.455Z,1023.81
2022-12-27T10:29:08.614Z,1023.84
2022-12-27T10:30:08.787Z,1023.92
2022-12-27T10:31:08.990Z,1023.82
2022-12-27T10:32:09.154Z,1023.78
2022-12-27T10:33:09.335Z,1023.92
2022-12-27T10:34:10.843Z,1023.95
2022-12-27T10:35:09.684Z,1023.89
2022-12-27T10:36:09.866Z,1023.89
2022-12-27T10:37:10.056Z,1023.91
2022-12-27T10:38:10.235Z,1023.97
2022-12-27T10:39:10.446Z,1023.93
2022-12-27T10:40:10.603Z,1023.92
2022-12-27T10:41:10.797Z,1023.94
2022-12-27T10:42:10.970Z,1023.99
2022-12-27T10:43:11.111Z,1024.02
2022-12-27T10:44:11.330Z,1023.98
2022-12-27T10:45:11.515Z,1024.03
2022-12-27T10:46:11.697Z,1023.94
2022-12-27T10:47:11.911Z,1024.06
2022-12-27T10:48:12.033Z,1024.05
2022-12-27T10:49:21.109Z,1024.02
2022-12-27T10:50:13.374Z,1024.11
2022-12-27T10:51:12.543Z,1024.13
2022-12-27T10:52:12.701Z,1024.21
2022-12-27T10:53:12.885Z,1024.09
2022-12-27T10:54:13.073Z,1024.15
2022-12-27T10:55:13.256Z,1024.22
2022-12-27T10:56:13.441Z,1024.17
2022-12-27T10:57:13.625Z,1024.11
2022-12-27T10:58:13.810Z,1024.06
2022-12-27T10:59:14.004Z,1024.15
2022-12-27T11:00:14.185Z,1024.09
2022-12-27T11:01:14.548Z,1024.07
2022-12-27T11:02:14.697Z,1024.09
2022-12-27T11:03:14.709Z,1024.06
2022-12-27T11:04:20.291Z,1024.11
2022-12-27T11:05:16.063Z,1024.08
2022-12-27T11:06:15.255Z,1024.04
2022-12-27T11:07:15.438Z,1024.10
2022-12-27T11:08:15.632Z,1023.99
2022-12-27T11:09:15.793Z,1024.17
2022-12-27T11:10:15.956Z,1024.15
2022-12-27T11:11:16.133Z,1024.15
2022-12-27T11:12:16.314Z,1024.20
2022-12-27T11:13:16.492Z,1024.10
2022-12-27T11:14:16.692Z,1024.10
2022-12-27T11:15:16.885Z,1024.06
2022-12-27T11:16:17.073Z,1024.12
2022-12-27T11:17:17.240Z,1024.17
2022-12-27T11:18:17.434Z,1024.19
2022-12-27T11:19:17.620Z,1024.11
2022-12-27T11:20:17.792Z,1024.26
2022-12-27T11:21:25.772Z,1024.22
2022-12-27T11:22:19.163Z,1024.14
2022-12-27T11:23:18.374Z,1024.20
2022-12-27T11:24:18.563Z,1024.30
2022-12-27T11:25:18.732Z,1024.17
2022-12-27T11:26:18.912Z,1024.23
2022-12-27T11:27:19.103Z,1024.26
2022-12-27T11:28:19.283Z,1024.22
2022-12-27T11:29:19.491Z,1024.24
2022-12-27T11:30:19.651Z,1024.30
2022-12-27T11:31:19.866Z,1024.19
2022-12-27T11:32:20.002Z,1024.19
2022-12-27T11:33:24.690Z,1024.32
2022-12-27T11:34:21.395Z,1024.27
2022-12-27T11:35:20.506Z,1024.22
2022-12-27T11:36:20.691Z,1024.27
2022-12-27T11:37:20.870Z,1024.34
2022-12-27T11:38:21.061Z,1024.31
2022-12-27T11:39:21.254Z,1024.24
2022-12-27T11:40:21.420Z,1024.32
2022-12-27T11:41:27.586Z,1024.39
2022-12-27T11:42:22.786Z,1024.47
2022-12-27T11:43:21.969Z,1024.46
2022-12-27T11:44:22.177Z,1024.43
2022-12-27T11:45:22.334Z,1024.45
2022-12-27T11:46:22.533Z,1024.47
2022-12-27T11:47:22.738Z,1024.46
2022-12-27T11:48:22.918Z,1024.49
2022-12-27T11:49:23.074Z,1024.47
2022-12-27T11:50:23.259Z,1024.55
2022-12-27T11:51:23.432Z,1024.52
2022-12-27T11:52:23.628Z,1024.53
2022-12-27T11:53:23.773Z,1024.47
2022-12-27T11:54:23.984Z,1024.53
2022-12-27T11:55:24.141Z,1024.41
2022-12-27T11:56:24.352Z,1024.55
2022-12-27T11:57:24.523Z,1024.49
2022-12-27T11:58:24.706Z,1024.48
2022-12-27T11:59:24.899Z,1024.48
2022-12-27T12:00:25.069Z,1024.48
2022-12-27T12:01:25.242Z,1024.53
2022-12-27T12:02:25.452Z,1024.43
2022-12-27T12:03:25.579Z,1024.52
2022-12-27T12:04:25.783Z,1024.52
2022-12-27T12:05:25.919Z,1024.49
2022-12-27T12:06:28.813Z,1024.46
2022-12-27T12:07:27.290Z,1024.43
2022-12-27T12:08:26.439Z,1024.52